Reserva, Brazil
Current Conditions -  °F | °C
As of 6:00 PM on Wednesday 17 Dec 2014 (Local Time) from SBLO Reporting Station
Clear Clear  
Wind Chill: 86°   Ceiling: Unl
Heat Index: 86°   Visibility: 6mi
Dew Point: 61°   Wind: 8mph
Humidity: 43%   Direction: 200°SSW
Pressure: 29.85"   Gusts: NA
Location:  24.65°S, 50.85°W
Report Text: SBLO 172000Z 20007KT CAVOK 30/16 Q1011
Loading
Personal Weather Stations






























Interactive Weather Map New forecast layout! Learn more

10-Day Weather Forecast

Advertisements
Track Severe Weather on mobile